createdAt,value
2022-10-27T00:00:39.383Z,99482.10
2022-10-27T00:03:06.845Z,99490.16
2022-10-27T00:05:34.365Z,99489.83
2022-10-27T00:08:01.436Z,99487.73
2022-10-27T00:10:28.466Z,99489.53
2022-10-27T00:12:58.667Z,99490.17
2022-10-27T00:15:26.809Z,99489.64
2022-10-27T00:17:53.710Z,99486.80
2022-10-27T00:20:20.737Z,99486.73
2022-10-27T00:22:50.890Z,99492.16
2022-10-27T00:25:19.074Z,99490.81
2022-10-27T00:27:46.083Z,99492.13
2022-10-27T00:30:13.217Z,99493.73
2022-10-27T00:32:40.545Z,99500.56
2022-10-27T00:35:07.865Z,99498.55
2022-10-27T00:37:34.856Z,99499.38
2022-10-27T00:40:01.886Z,99498.33
2022-10-27T00:42:29.313Z,99497.27
2022-10-27T00:44:56.334Z,99496.86
2022-10-27T00:47:28.007Z,99496.48
2022-10-27T00:50:01.671Z,99500.38
2022-10-27T00:52:33.345Z,99502.80
2022-10-27T00:55:12.903Z,99501.70
2022-10-27T00:57:40.655Z,99501.83
2022-10-27T01:00:09.101Z,99506.15
2022-10-27T01:02:36.858Z,99505.23
2022-10-27T01:05:11.575Z,99505.91
2022-10-27T01:07:39.650Z,99504.07
2022-10-27T01:10:06.946Z,99510.60
2022-10-27T01:12:34.505Z,99513.34
2022-10-27T01:15:01.446Z,99512.08
2022-10-27T01:17:31.394Z,99515.48
2022-10-27T01:20:24.734Z,99519.34
2022-10-27T01:23:03.101Z,99515.35
2022-10-27T01:25:52.910Z,99517.63
2022-10-27T01:28:31.991Z,99516.98
2022-10-27T01:31:14.044Z,99517.11
2022-10-27T01:33:52.050Z,99523.05
2022-10-27T01:36:25.039Z,99521.98
2022-10-27T01:38:59.285Z,99522.15
2022-10-27T01:44:17.713Z,99524.54
2022-10-27T01:46:44.658Z,99521.71
2022-10-27T01:49:12.460Z,99519.27
2022-10-27T01:51:40.644Z,99521.17
2022-10-27T01:54:07.751Z,99518.45
2022-10-27T01:57:07.261Z,99519.34
2022-10-27T01:59:58.845Z,99521.08
2022-10-27T02:02:48.520Z,99527.99
2022-10-27T02:05:32.300Z,99532.45
2022-10-27T02:08:11.785Z,99536.26
2022-10-27T02:10:46.805Z,99538.95
2022-10-27T02:13:14.069Z,99547.16
2022-10-27T02:15:44.027Z,99546.50
2022-10-27T02:18:33.011Z,99542.84
2022-10-27T02:23:28.525Z,99548.95
2022-10-27T02:26:13.918Z,99547.98
2022-10-27T02:29:06.981Z,99552.72
2022-10-27T02:31:36.121Z,99551.00
2022-10-27T02:34:03.477Z,99547.00
2022-10-27T02:36:31.113Z,99542.92
2022-10-27T02:38:58.050Z,99541.73
2022-10-27T02:41:25.547Z,99544.89
2022-10-27T02:43:55.581Z,99546.46
2022-10-27T02:46:22.788Z,99548.96
2022-10-27T02:48:49.706Z,99550.88
2022-10-27T02:51:16.722Z,99549.86
2022-10-27T02:53:44.338Z,99549.30
2022-10-27T02:56:12.560Z,99553.19
2022-10-27T02:58:40.815Z,99557.86
2022-10-27T03:01:07.787Z,99558.58
2022-10-27T03:03:34.927Z,99556.16
2022-10-27T03:06:02.429Z,99560.59
2022-10-27T03:08:29.944Z,99557.91
2022-10-27T03:10:59.056Z,99561.98
2022-10-27T03:13:26.098Z,99556.73
2022-10-27T03:15:54.176Z,99556.58
2022-10-27T03:18:21.699Z,99559.01
2022-10-27T03:20:49.807Z,99561.30
2022-10-27T03:23:17.002Z,99558.41
2022-10-27T03:25:47.630Z,99558.77
2022-10-27T03:28:16.347Z,99557.30
2022-10-27T03:30:48.654Z,99553.71
2022-10-27T03:33:15.948Z,99553.06
2022-10-27T03:35:44.005Z,99556.03
2022-10-27T03:38:13.110Z,99556.73
2022-10-27T03:40:40.201Z,99559.76
2022-10-27T03:43:07.594Z,99561.90
2022-10-27T03:45:35.834Z,99561.36
2022-10-27T03:48:07.669Z,99559.96
2022-10-27T03:50:34.896Z,99559.27
2022-10-27T03:53:03.645Z,99555.76
2022-10-27T03:55:32.214Z,99559.36
2022-10-27T03:57:59.754Z,99560.54
2022-10-27T04:00:28.809Z,99559.94
2022-10-27T04:02:57.090Z,99555.98
2022-10-27T04:05:24.224Z,99557.57
2022-10-27T04:07:52.925Z,99561.55
2022-10-27T04:10:19.918Z,99560.70
2022-10-27T04:12:59.394Z,99562.55
2022-10-27T04:15:27.256Z,99564.03
2022-10-27T04:17:55.270Z,99568.53
2022-10-27T04:20:23.049Z,99573.58
2022-10-27T04:22:50.563Z,99570.13
2022-10-27T04:25:18.043Z,99571.87
2022-10-27T04:27:45.693Z,99570.80
2022-10-27T04:30:12.804Z,99578.11
2022-10-27T04:32:41.162Z,99580.70
2022-10-27T04:35:08.799Z,99582.33
2022-10-27T04:37:35.819Z,99582.94
2022-10-27T04:40:02.974Z,99578.52
2022-10-27T04:42:30.525Z,99582.77
2022-10-27T04:44:57.431Z,99584.59
2022-10-27T04:47:24.463Z,99583.75
2022-10-27T04:49:51.433Z,99583.20
2022-10-27T04:52:18.453Z,99585.05
2022-10-27T04:54:45.793Z,99585.92
2022-10-27T04:57:13.152Z,99583.95
2022-10-27T04:59:40.661Z,99589.45
2022-10-27T05:02:07.850Z,99590.40
2022-10-27T05:04:35.906Z,99591.27
2022-10-27T05:07:03.103Z,99594.22
2022-10-27T05:09:30.008Z,99599.27
2022-10-27T05:11:57.270Z,99600.30
2022-10-27T05:14:24.330Z,99599.14
2022-10-27T05:16:51.619Z,99598.93
2022-10-27T05:19:18.546Z,99604.14
2022-10-27T05:21:45.633Z,99607.95
2022-10-27T05:24:12.643Z,99611.09
2022-10-27T05:26:39.667Z,99616.23
2022-10-27T05:29:06.820Z,99615.19
2022-10-27T05:31:33.868Z,99614.52
2022-10-27T05:34:01.177Z,99616.75
2022-10-27T05:36:28.487Z,99618.42
2022-10-27T05:38:56.440Z,99621.80
2022-10-27T05:41:23.465Z,99623.41
2022-10-27T05:43:52.578Z,99625.94
2022-10-27T05:46:19.578Z,99628.98
2022-10-27T05:48:46.585Z,99629.30
2022-10-27T05:51:15.707Z,99635.83
2022-10-27T05:53:44.936Z,99645.39
2022-10-27T05:56:11.845Z,99648.75
2022-10-27T05:58:39.105Z,99654.17
2022-10-27T06:01:06.161Z,99655.91
2022-10-27T06:03:33.446Z,99660.43
2022-10-27T06:06:03.439Z,99662.55
2022-10-27T06:08:30.623Z,99663.41
2022-10-27T06:10:57.898Z,99667.38
2022-10-27T06:13:25.942Z,99665.69
2022-10-27T06:15:53.429Z,99663.88
2022-10-27T06:18:23.561Z,99665.33
2022-10-27T06:20:50.670Z,99668.27
2022-10-27T06:23:17.783Z,99669.71
2022-10-27T06:25:44.956Z,99670.91
2022-10-27T06:28:11.874Z,99674.56
2022-10-27T06:30:39.408Z,99677.89
2022-10-27T06:33:08.059Z,99680.02
2022-10-27T06:35:35.147Z,99682.35
2022-10-27T06:38:02.088Z,99683.29
2022-10-27T06:40:29.753Z,99687.83
2022-10-27T06:43:12.186Z,99686.27
2022-10-27T06:45:39.696Z,99689.52
2022-10-27T06:48:08.289Z,99689.73
2022-10-27T06:50:55.084Z,99696.40
2022-10-27T06:53:22.057Z,99696.30
2022-10-27T06:55:49.011Z,99698.90
2022-10-27T06:58:15.931Z,99700.73
2022-10-27T07:00:43.175Z,99699.48
2022-10-27T07:05:38.373Z,99707.29
2022-10-27T07:08:05.705Z,99708.41
2022-10-27T07:10:32.599Z,99708.64
2022-10-27T07:13:00.993Z,99711.28
2022-10-27T07:15:36.645Z,99718.42
2022-10-27T07:18:06.925Z,99722.39
2022-10-27T07:20:35.006Z,99721.48
2022-10-27T07:23:02.579Z,99720.00
2022-10-27T07:25:30.651Z,99721.35
2022-10-27T07:27:58.373Z,99721.70
2022-10-27T07:30:30.470Z,99718.29
2022-10-27T07:32:57.787Z,99719.50
2022-10-27T07:35:24.830Z,99720.62
2022-10-27T07:37:52.464Z,99716.66
2022-10-27T07:40:21.621Z,99715.38
2022-10-27T07:42:54.535Z,99711.93
2022-10-27T07:45:22.671Z,99713.23
2022-10-27T07:47:51.267Z,99718.64
2022-10-27T07:50:19.733Z,99723.38
2022-10-27T07:52:48.436Z,99716.57
2022-10-27T07:55:15.976Z,99718.86
2022-10-27T07:57:43.555Z,99720.20
2022-10-27T08:00:12.762Z,99725.00
2022-10-27T08:02:40.015Z,99723.65
2022-10-27T08:05:07.910Z,99722.13
2022-10-27T08:07:35.423Z,99725.35
2022-10-27T08:10:05.071Z,99725.41
2022-10-27T08:12:32.084Z,99724.78
2022-10-27T08:14:59.574Z,99723.49
2022-10-27T08:17:28.921Z,99721.31
2022-10-27T08:19:56.232Z,99725.74
2022-10-27T08:22:23.947Z,99726.27
2022-10-27T08:24:51.034Z,99721.88
2022-10-27T08:27:17.980Z,99727.45
2022-10-27T08:29:45.112Z,99726.23
2022-10-27T08:32:12.950Z,99721.14
2022-10-27T08:34:39.872Z,99730.71
2022-10-27T08:37:06.851Z,99731.23
2022-10-27T08:39:35.580Z,99725.23
2022-10-27T08:42:45.020Z,99732.70
2022-10-27T08:45:18.675Z,99727.38
2022-10-27T08:47:45.824Z,99725.25
2022-10-27T08:50:21.785Z,99726.78
2022-10-27T08:52:57.132Z,99728.55
2022-10-27T08:55:29.936Z,99729.77
2022-10-27T08:58:23.266Z,99728.89
2022-10-27T09:00:53.999Z,99729.42
2022-10-27T09:03:31.587Z,99732.13
2022-10-27T09:06:09.352Z,99727.29
2022-10-27T09:08:49.998Z,99723.54
2022-10-27T09:11:45.986Z,99723.30
2022-10-27T09:14:45.570Z,99720.42
2022-10-27T09:17:25.590Z,99718.40
2022-10-27T09:20:05.840Z,99722.21
2022-10-27T09:22:34.245Z,99720.45
2022-10-27T09:25:03.736Z,99713.95
2022-10-27T09:27:30.967Z,99708.56
2022-10-27T09:30:03.525Z,99709.77
2022-10-27T09:32:33.168Z,99708.27
2022-10-27T09:35:02.236Z,99708.13
2022-10-27T09:37:31.320Z,99704.91
2022-10-27T09:39:58.319Z,99702.91
2022-10-27T09:42:27.117Z,99702.67
2022-10-27T09:45:01.042Z,99704.28
2022-10-27T09:47:38.437Z,99701.81
2022-10-27T09:50:08.885Z,99700.16
2022-10-27T09:52:39.954Z,99696.70
2022-10-27T09:55:07.480Z,99688.00
2022-10-27T09:57:35.545Z,99683.98
2022-10-27T10:00:08.611Z,99679.87
2022-10-27T10:02:45.661Z,99676.95
2022-10-27T10:05:25.559Z,99678.79
2022-10-27T10:07:55.337Z,99679.95
2022-10-27T10:10:28.591Z,99679.50
2022-10-27T10:13:10.745Z,99677.94
2022-10-27T10:15:45.829Z,99673.53
2022-10-27T10:18:23.097Z,99673.52
2022-10-27T10:20:56.546Z,99671.52
2022-10-27T10:23:24.905Z,99668.88
2022-10-27T10:25:53.015Z,99670.45
2022-10-27T10:28:43.406Z,99672.02
2022-10-27T10:31:13.185Z,99677.66
2022-10-27T10:33:45.170Z,99674.94
2022-10-27T10:36:35.582Z,99675.75
2022-10-27T10:39:02.936Z,99675.03
2022-10-27T10:41:31.845Z,99674.86
2022-10-27T10:44:14.922Z,99674.57
2022-10-27T10:46:53.367Z,99676.13
2022-10-27T10:49:30.937Z,99675.66
2022-10-27T10:52:02.674Z,99676.70
2022-10-27T10:54:35.038Z,99672.56
2022-10-27T10:57:02.557Z,99671.34
2022-10-27T10:59:33.704Z,99668.91
2022-10-27T11:02:04.511Z,99662.80
2022-10-27T11:04:40.994Z,99657.31
2022-10-27T11:07:31.864Z,99657.98
2022-10-27T11:10:12.794Z,99654.45
2022-10-27T11:12:56.336Z,99651.20
2022-10-27T11:15:35.996Z,99652.68
2022-10-27T11:18:24.787Z,99652.21
2022-10-27T11:20:55.189Z,99645.83
2022-10-27T11:23:28.419Z,99641.29
2022-10-27T11:25:58.795Z,99642.31
2022-10-27T11:28:28.121Z,99643.64
2022-10-27T11:31:06.155Z,99641.54
2022-10-27T11:33:52.385Z,99641.90
2022-10-27T11:36:21.780Z,99643.85
2022-10-27T11:39:08.397Z,99641.02
2022-10-27T11:41:44.216Z,99640.92
2022-10-27T11:44:43.974Z,99635.55
2022-10-27T11:47:11.765Z,99634.75
2022-10-27T11:49:43.942Z,99631.98
2022-10-27T11:52:25.678Z,99631.18
2022-10-27T11:54:53.004Z,99633.61
2022-10-27T11:57:41.686Z,99632.30
2022-10-27T12:00:20.773Z,99628.86
2022-10-27T12:03:06.180Z,99627.81
2022-10-27T12:05:58.128Z,99626.21
2022-10-27T12:08:40.861Z,99626.85
2022-10-27T12:11:23.407Z,99629.66
2022-10-27T12:14:09.547Z,99627.45
2022-10-27T12:16:55.893Z,99632.17
2022-10-27T12:19:28.170Z,99628.88
2022-10-27T12:22:01.543Z,99625.58
2022-10-27T12:24:40.146Z,99630.23
2022-10-27T12:27:10.191Z,99630.81
2022-10-27T12:29:39.721Z,99627.91
2022-10-27T12:32:11.406Z,99627.36
2022-10-27T12:34:41.404Z,99627.81
2022-10-27T12:37:22.554Z,99630.06
2022-10-27T12:39:53.573Z,99631.19
2022-10-27T12:42:42.586Z,99631.96
2022-10-27T12:45:34.176Z,99631.62
2022-10-27T12:48:10.188Z,99626.17
2022-10-27T12:50:58.879Z,99631.11
2022-10-27T12:53:40.371Z,99632.29
2022-10-27T12:56:23.378Z,99631.45
2022-10-27T12:58:52.588Z,99633.11
2022-10-27T13:01:44.855Z,99631.67
2022-10-27T13:04:44.086Z,99634.30
2022-10-27T13:07:32.356Z,99633.69
2022-10-27T13:10:30.203Z,99635.06
2022-10-27T13:13:03.213Z,99635.29
2022-10-27T13:15:38.621Z,99635.86
2022-10-27T13:18:15.636Z,99635.20
2022-10-27T13:21:16.141Z,99632.01
2022-10-27T13:24:03.450Z,99630.59
2022-10-27T13:26:34.848Z,99630.65
2022-10-27T13:29:14.224Z,99635.72
2022-10-27T13:31:41.296Z,99635.33
2022-10-27T13:34:08.367Z,99634.83
2022-10-27T13:36:37.420Z,99635.29
2022-10-27T13:39:13.496Z,99632.33
2022-10-27T13:41:50.040Z,99629.13
2022-10-27T13:44:27.149Z,99631.02
2022-10-27T13:47:10.787Z,99629.70
2022-10-27T13:49:40.949Z,99627.83
2022-10-27T13:52:16.933Z,99627.80
2022-10-27T13:55:14.392Z,99628.00
2022-10-27T13:58:07.043Z,99630.29
2022-10-27T14:00:47.057Z,99632.70
2022-10-27T14:06:14.470Z,99634.39
2022-10-27T14:08:51.807Z,99634.07
2022-10-27T14:11:30.248Z,99636.65
2022-10-27T14:14:01.778Z,99639.42
2022-10-27T14:16:38.134Z,99641.27
2022-10-27T14:19:06.794Z,99640.69
2022-10-27T14:21:36.788Z,99638.30
2022-10-27T14:24:06.064Z,99641.15
2022-10-27T14:26:37.185Z,99638.61
2022-10-27T14:29:04.941Z,99639.66
2022-10-27T14:31:33.556Z,99638.23
2022-10-27T14:34:26.071Z,99643.36
2022-10-27T14:36:57.280Z,99648.18
2022-10-27T14:39:31.456Z,99651.15
2022-10-27T14:42:02.804Z,99650.87
2022-10-27T14:44:32.172Z,99651.67
2022-10-27T14:47:01.174Z,99650.42
2022-10-27T14:49:32.356Z,99649.77
2022-10-27T14:52:03.880Z,99652.44
2022-10-27T14:54:31.079Z,99653.27
2022-10-27T14:57:24.399Z,99652.91
2022-10-27T14:59:51.727Z,99655.64
2022-10-27T15:02:18.980Z,99655.78
2022-10-27T15:04:45.979Z,99654.21
2022-10-27T15:07:15.406Z,99652.98
2022-10-27T15:09:50.102Z,99654.81
2022-10-27T15:12:25.097Z,99656.84
2022-10-27T15:14:54.566Z,99658.69
2022-10-27T15:17:28.109Z,99658.46
2022-10-27T15:19:57.331Z,99661.33
2022-10-27T15:22:24.358Z,99658.40
2022-10-27T15:24:51.350Z,99659.48
2022-10-27T15:27:19.272Z,99663.58
2022-10-27T15:29:48.484Z,99662.85
2022-10-27T15:32:23.327Z,99665.48
2022-10-27T15:34:50.466Z,99662.73
2022-10-27T15:37:23.926Z,99660.55
2022-10-27T15:39:51.924Z,99664.16
2022-10-27T15:42:20.356Z,99667.73
2022-10-27T15:44:48.103Z,99672.58
2022-10-27T15:47:42.049Z,99673.52
2022-10-27T15:50:25.752Z,99671.77
2022-10-27T15:53:05.332Z,99680.83
2022-10-27T15:55:32.582Z,99684.81
2022-10-27T15:57:59.705Z,99685.39
2022-10-27T16:00:27.595Z,99688.10
2022-10-27T16:02:58.412Z,99687.22
2022-10-27T16:05:32.221Z,99689.27
2022-10-27T16:08:00.101Z,99693.45
2022-10-27T16:10:27.438Z,99691.69
2022-10-27T16:12:54.792Z,99697.59
2022-10-27T16:15:23.772Z,99695.50
2022-10-27T16:17:56.535Z,99699.84
2022-10-27T16:20:24.604Z,99701.44
2022-10-27T16:22:52.079Z,99703.20
2022-10-27T16:25:21.223Z,99705.70
2022-10-27T16:27:48.138Z,99707.05
2022-10-27T16:30:17.381Z,99710.27
2022-10-27T16:32:44.457Z,99713.02
2022-10-27T16:35:15.264Z,99717.86
2022-10-27T16:37:44.017Z,99715.81
2022-10-27T16:40:17.490Z,99720.80
2022-10-27T16:42:50.594Z,99722.67
2022-10-27T16:45:20.408Z,99723.90
2022-10-27T16:47:49.427Z,99729.34
2022-10-27T16:50:16.685Z,99730.69
2022-10-27T16:52:43.851Z,99736.89
2022-10-27T16:55:13.775Z,99738.20
2022-10-27T16:57:47.209Z,99738.66
2022-10-27T17:00:16.931Z,99739.72
2022-10-27T17:02:44.026Z,99738.76
2022-10-27T17:05:11.175Z,99741.60
2022-10-27T17:07:39.271Z,99737.77
2022-10-27T17:10:07.140Z,99739.45
2022-10-27T17:12:35.376Z,99743.18
2022-10-27T17:15:02.380Z,99744.14
2022-10-27T17:17:29.441Z,99741.73
2022-10-27T17:19:56.550Z,99745.23
2022-10-27T17:22:23.530Z,99743.50
2022-10-27T17:24:50.899Z,99745.08
2022-10-27T17:27:17.825Z,99749.38
2022-10-27T17:29:47.102Z,99748.29
2022-10-27T17:32:14.483Z,99749.30
2022-10-27T17:34:43.511Z,99748.36
2022-10-27T17:37:11.981Z,99748.40
2022-10-27T17:39:39.031Z,99751.42
2022-10-27T17:42:07.348Z,99755.56
2022-10-27T17:44:34.513Z,99755.36
2022-10-27T17:47:01.724Z,99754.06
2022-10-27T17:49:28.921Z,99753.17
2022-10-27T17:51:55.968Z,99757.02
2022-10-27T17:54:24.755Z,99765.05
2022-10-27T17:56:52.013Z,99765.30
2022-10-27T17:59:20.254Z,99762.55
2022-10-27T18:01:49.965Z,99761.86
2022-10-27T18:04:17.558Z,99762.89
2022-10-27T18:06:44.677Z,99765.35
2022-10-27T18:09:13.728Z,99768.73
2022-10-27T18:11:41.933Z,99766.73
2022-10-27T18:14:13.329Z,99770.48
2022-10-27T18:16:41.021Z,99770.81
2022-10-27T18:19:11.369Z,99769.23
2022-10-27T18:21:44.401Z,99768.44
2022-10-27T18:24:12.496Z,99767.27
2022-10-27T18:26:42.053Z,99770.80
2022-10-27T18:29:10.417Z,99770.66
2022-10-27T18:31:38.809Z,99771.88
2022-10-27T18:34:10.181Z,99779.33
2022-10-27T18:36:37.827Z,99782.20
2022-10-27T18:39:05.589Z,99784.55
2022-10-27T18:41:34.195Z,99781.77
2022-10-27T18:44:01.289Z,99783.85
2022-10-27T18:46:28.885Z,99779.08
2022-10-27T18:48:59.067Z,99784.52
2022-10-27T18:51:29.180Z,99784.40
2022-10-27T18:53:57.551Z,99784.36
2022-10-27T18:56:54.311Z,99790.39
2022-10-27T18:59:21.289Z,99793.20
2022-10-27T19:01:48.480Z,99793.12
2022-10-27T19:04:16.171Z,99795.23
2022-10-27T19:06:43.855Z,99802.12
2022-10-27T19:09:11.342Z,99803.05
2022-10-27T19:11:38.412Z,99800.75
2022-10-27T19:14:06.540Z,99800.96
2022-10-27T19:16:34.773Z,99801.80
2022-10-27T19:19:02.819Z,99804.81
2022-10-27T19:21:30.094Z,99803.58
2022-10-27T19:24:02.215Z,99805.66
2022-10-27T19:26:31.232Z,99806.58
2022-10-27T19:28:58.454Z,99808.40
2022-10-27T19:31:27.838Z,99813.17
2022-10-27T19:33:55.358Z,99813.08
2022-10-27T19:36:33.258Z,99814.15
2022-10-27T19:39:01.708Z,99816.71
2022-10-27T19:41:30.741Z,99819.89
2022-10-27T19:43:57.873Z,99816.21
2022-10-27T19:46:25.819Z,99820.09
2022-10-27T19:48:57.583Z,99823.46
2022-10-27T19:51:26.604Z,99818.95
2022-10-27T19:53:54.289Z,99824.86
2022-10-27T19:56:21.824Z,99828.05
2022-10-27T19:58:53.256Z,99827.19
2022-10-27T20:01:40.394Z,99833.95
2022-10-27T20:04:11.086Z,99833.54
2022-10-27T20:06:48.167Z,99832.83
2022-10-27T20:09:16.361Z,99830.46
2022-10-27T20:11:44.766Z,99828.80
2022-10-27T20:14:12.414Z,99834.47
2022-10-27T20:16:42.349Z,99835.22
2022-10-27T20:19:14.665Z,99838.63
2022-10-27T20:21:41.863Z,99839.71
2022-10-27T20:24:12.778Z,99840.16
2022-10-27T20:26:44.434Z,99841.38
2022-10-27T20:29:12.575Z,99841.23
2022-10-27T20:31:40.220Z,99843.88
2022-10-27T20:34:10.532Z,99838.77
2022-10-27T20:36:40.407Z,99842.02
2022-10-27T20:39:08.159Z,99842.17
2022-10-27T20:41:35.215Z,99838.68
2022-10-27T20:44:02.717Z,99834.85
2022-10-27T20:46:31.835Z,99831.86
2022-10-27T20:48:59.290Z,99829.78
2022-10-27T20:51:28.934Z,99834.88
2022-10-27T20:53:56.034Z,99834.37
2022-10-27T20:56:28.104Z,99835.95
2022-10-27T20:58:55.365Z,99833.66
2022-10-27T21:01:29.458Z,99834.70
2022-10-27T21:04:00.384Z,99835.63
2022-10-27T21:06:27.797Z,99839.02
2022-10-27T21:08:56.239Z,99834.84
2022-10-27T21:11:26.881Z,99839.25
2022-10-27T21:13:57.209Z,99834.60
2022-10-27T21:16:24.332Z,99834.13
2022-10-27T21:18:52.867Z,99836.10
2022-10-27T21:21:20.738Z,99835.98
2022-10-27T21:23:48.358Z,99839.59
2022-10-27T21:26:15.434Z,99843.84
2022-10-27T21:28:42.902Z,99841.73
2022-10-27T21:31:12.685Z,99840.19
2022-10-27T21:33:40.420Z,99840.91
2022-10-27T21:36:07.978Z,99844.45
2022-10-27T21:38:42.482Z,99842.29
2022-10-27T21:41:09.594Z,99838.91
2022-10-27T21:43:38.334Z,99840.51
2022-10-27T21:46:05.504Z,99839.02
2022-10-27T21:48:32.692Z,99838.00
2022-10-27T21:50:59.769Z,99835.75
2022-10-27T21:53:26.961Z,99840.80
2022-10-27T21:56:04.669Z,99840.81
2022-10-27T21:58:32.490Z,99841.50
2022-10-27T22:01:10.587Z,99839.16
2022-10-27T22:03:38.268Z,99839.20
2022-10-27T22:06:05.719Z,99841.25
2022-10-27T22:08:34.686Z,99835.84
2022-10-27T22:11:16.537Z,99833.10
2022-10-27T22:13:45.575Z,99836.05
2022-10-27T22:16:14.790Z,99837.80
2022-10-27T22:18:42.225Z,99841.23
2022-10-27T22:21:11.697Z,99845.31
2022-10-27T22:23:41.401Z,99846.74
2022-10-27T22:26:10.932Z,99851.85
2022-10-27T22:28:39.231Z,99851.36
2022-10-27T22:31:10.831Z,99849.13
2022-10-27T22:33:41.893Z,99849.50
2022-10-27T22:36:14.166Z,99850.87
2022-10-27T22:38:41.318Z,99850.14
2022-10-27T22:41:15.802Z,99850.63
2022-10-27T22:43:43.267Z,99852.70
2022-10-27T22:46:14.836Z,99851.45
2022-10-27T22:48:41.764Z,99854.73
2022-10-27T22:51:10.994Z,99857.69
2022-10-27T22:53:39.530Z,99854.80
2022-10-27T22:56:11.803Z,99855.27
2022-10-27T22:58:40.095Z,99856.77
2022-10-27T23:01:13.887Z,99856.36
2022-10-27T23:03:41.275Z,99856.33
2022-10-27T23:06:10.869Z,99855.34
2022-10-27T23:08:38.030Z,99854.06
2022-10-27T23:11:06.555Z,99849.36
2022-10-27T23:13:35.570Z,99851.36
2022-10-27T23:16:07.381Z,99855.96
2022-10-27T23:18:37.342Z,99856.83
2022-10-27T23:21:08.499Z,99858.38
2022-10-27T23:23:35.651Z,99861.37
2022-10-27T23:26:02.692Z,99864.23
2022-10-27T23:28:30.102Z,99861.73
2022-10-27T23:31:01.092Z,99860.95
2022-10-27T23:33:27.923Z,99865.86
2022-10-27T23:36:00.805Z,99866.34
2022-10-27T23:38:28.407Z,99866.84
2022-10-27T23:40:56.897Z,99863.90
2022-10-27T23:43:24.091Z,99859.99
2022-10-27T23:45:57.705Z,99857.23
2022-10-27T23:48:24.746Z,99857.78
2022-10-27T23:50:51.802Z,99851.44
2022-10-27T23:53:19.269Z,99857.13
2022-10-27T23:55:53.405Z,99855.12
2022-10-27T23:58:20.494Z,99856.55
